sensor_id;sensor_type;location;lat;lon;timestamp;pressure;altitude;pressure_sealevel;temperature;humidity
39051;BME280;24805;55.852;37.644;2024-02-26T00:02:38;100423.16;;;0.57;52.87
39051;BME280;24805;55.852;37.644;2024-02-26T00:07:42;100437.69;;;0.61;52.97
39051;BME280;24805;55.852;37.644;2024-02-26T00:12:44;100447.59;;;0.71;52.60
39051;BME280;24805;55.852;37.644;2024-02-26T00:17:46;100420.44;;;0.59;53.21
39051;BME280;24805;55.852;37.644;2024-02-26T00:22:49;100440.28;;;0.61;52.32
39051;BME280;24805;55.852;37.644;2024-02-26T00:27:51;100425.47;;;0.62;52.41
39051;BME280;24805;55.852;37.644;2024-02-26T00:32:54;100452.31;;;0.50;51.71
39051;BME280;24805;55.852;37.644;2024-02-26T00:37:56;100422.00;;;0.47;52.41
39051;BME280;24805;55.852;37.644;2024-02-26T00:43:00;100443.38;;;0.54;52.12
39051;BME280;24805;55.852;37.644;2024-02-26T00:48:03;100428.16;;;0.60;51.74
39051;BME280;24805;55.852;37.644;2024-02-26T00:53:07;100416.16;;;0.58;52.42
39051;BME280;24805;55.852;37.644;2024-02-26T00:58:10;100412.03;;;0.54;52.21
39051;BME280;24805;55.852;37.644;2024-02-26T01:03:12;100409.44;;;0.54;52.26
39051;BME280;24805;55.852;37.644;2024-02-26T01:08:15;100416.97;;;0.44;51.80
39051;BME280;24805;55.852;37.644;2024-02-26T01:13:17;100418.78;;;0.58;53.96
39051;BME280;24805;55.852;37.644;2024-02-26T01:18:19;100436.47;;;0.53;52.41
39051;BME280;24805;55.852;37.644;2024-02-26T01:23:22;100411.66;;;0.46;51.84
39051;BME280;24805;55.852;37.644;2024-02-26T01:28:24;100406.44;;;0.46;51.43
39051;BME280;24805;55.852;37.644;2024-02-26T01:33:26;100404.75;;;0.45;51.28
39051;BME280;24805;55.852;37.644;2024-02-26T01:38:29;100401.47;;;0.41;51.69
39051;BME280;24805;55.852;37.644;2024-02-26T01:43:31;100409.97;;;0.45;51.77
39051;BME280;24805;55.852;37.644;2024-02-26T01:48:34;100420.91;;;0.51;51.12
39051;BME280;24805;55.852;37.644;2024-02-26T01:53:37;100404.13;;;0.55;51.31
39051;BME280;24805;55.852;37.644;2024-02-26T01:58:41;100406.16;;;0.50;51.36
39051;BME280;24805;55.852;37.644;2024-02-26T02:03:43;100397.66;;;0.47;51.37
39051;BME280;24805;55.852;37.644;2024-02-26T02:08:46;100391.59;;;0.46;51.25
39051;BME280;24805;55.852;37.644;2024-02-26T02:13:48;100401.38;;;0.43;51.24
39051;BME280;24805;55.852;37.644;2024-02-26T02:18:51;100393.38;;;0.46;51.04
39051;BME280;24805;55.852;37.644;2024-02-26T02:23:53;100394.78;;;0.37;50.96
39051;BME280;24805;55.852;37.644;2024-02-26T02:28:56;100393.94;;;0.37;51.00
39051;BME280;24805;55.852;37.644;2024-02-26T02:33:58;100408.69;;;0.38;50.69
39051;BME280;24805;55.852;37.644;2024-02-26T02:39:01;100382.28;;;0.28;51.28
39051;BME280;24805;55.852;37.644;2024-02-26T02:44:04;100404.56;;;0.33;50.77
39051;BME280;24805;55.852;37.644;2024-02-26T02:49:09;100389.34;;;0.40;50.69
39051;BME280;24805;55.852;37.644;2024-02-26T02:54:12;100389.84;;;0.32;50.50
39051;BME280;24805;55.852;37.644;2024-02-26T02:59:15;100377.16;;;0.26;50.97
39051;BME280;24805;55.852;37.644;2024-02-26T03:04:17;100382.00;;;0.32;51.29
39051;BME280;24805;55.852;37.644;2024-02-26T03:09:19;100385.72;;;0.28;50.82
39051;BME280;24805;55.852;37.644;2024-02-26T03:14:22;100390.19;;;0.26;50.40
39051;BME280;24805;55.852;37.644;2024-02-26T03:19:24;100370.72;;;0.18;51.13
39051;BME280;24805;55.852;37.644;2024-02-26T03:24:28;100388.22;;;0.16;50.66
39051;BME280;24805;55.852;37.644;2024-02-26T03:29:30;100377.03;;;0.14;50.86
39051;BME280;24805;55.852;37.644;2024-02-26T03:34:33;100375.09;;;0.17;51.02
39051;BME280;24805;55.852;37.644;2024-02-26T03:39:41;100360.53;;;0.13;50.85
39051;BME280;24805;55.852;37.644;2024-02-26T03:44:43;100369.66;;;0.06;51.06
39051;BME280;24805;55.852;37.644;2024-02-26T03:49:46;100371.16;;;0.10;50.62
39051;BME280;24805;55.852;37.644;2024-02-26T03:54:48;100379.47;;;0.17;50.69
39051;BME280;24805;55.852;37.644;2024-02-26T03:59:50;100384.56;;;0.04;50.35
39051;BME280;24805;55.852;37.644;2024-02-26T04:04:52;100372.06;;;-0.05;50.44
39051;BME280;24805;55.852;37.644;2024-02-26T04:09:55;100375.44;;;-0.03;50.72
39051;BME280;24805;55.852;37.644;2024-02-26T04:14:57;100380.06;;;-0.08;50.53
39051;BME280;24805;55.852;37.644;2024-02-26T04:19:59;100368.13;;;-0.12;50.29
39051;BME280;24805;55.852;37.644;2024-02-26T04:25:02;100373.84;;;-0.06;51.06
39051;BME280;24805;55.852;37.644;2024-02-26T04:30:06;100385.03;;;-0.04;50.61
39051;BME280;24805;55.852;37.644;2024-02-26T04:35:09;100375.19;;;-0.14;51.48
39051;BME280;24805;55.852;37.644;2024-02-26T04:40:11;100368.38;;;-0.17;50.81
39051;BME280;24805;55.852;37.644;2024-02-26T04:45:14;100393.00;;;-0.21;50.89
39051;BME280;24805;55.852;37.644;2024-02-26T04:50:16;100380.66;;;-0.19;51.24
39051;BME280;24805;55.852;37.644;2024-02-26T04:55:19;100356.50;;;-0.37;51.24
39051;BME280;24805;55.852;37.644;2024-02-26T05:00:21;100386.09;;;-0.22;51.43
39051;BME280;24805;55.852;37.644;2024-02-26T05:05:23;100368.53;;;-0.04;52.08
39051;BME280;24805;55.852;37.644;2024-02-26T05:10:26;100373.34;;;-0.12;52.34
39051;BME280;24805;55.852;37.644;2024-02-26T05:15:28;100382.84;;;-0.11;51.23
39051;BME280;24805;55.852;37.644;2024-02-26T05:20:30;100383.19;;;-0.17;51.87
39051;BME280;24805;55.852;37.644;2024-02-26T05:25:34;100372.41;;;-0.11;51.11
39051;BME280;24805;55.852;37.644;2024-02-26T05:30:36;100382.13;;;0.01;51.91
39051;BME280;24805;55.852;37.644;2024-02-26T05:35:42;100372.41;;;-0.11;52.05
39051;BME280;24805;55.852;37.644;2024-02-26T05:40:44;100365.84;;;-0.03;52.05
39051;BME280;24805;55.852;37.644;2024-02-26T05:45:47;100357.44;;;0.07;52.09
39051;BME280;24805;55.852;37.644;2024-02-26T05:50:50;100374.06;;;0.20;51.52
39051;BME280;24805;55.852;37.644;2024-02-26T05:55:52;100384.03;;;0.13;51.51
39051;BME280;24805;55.852;37.644;2024-02-26T06:00:54;100368.94;;;0.18;51.54
39051;BME280;24805;55.852;37.644;2024-02-26T06:05:57;100360.47;;;0.15;51.47
39051;BME280;24805;55.852;37.644;2024-02-26T06:10:59;100376.88;;;0.31;51.41
39051;BME280;24805;55.852;37.644;2024-02-26T06:16:01;100385.63;;;0.44;51.51
39051;BME280;24805;55.852;37.644;2024-02-26T06:21:04;100360.38;;;0.16;51.13
39051;BME280;24805;55.852;37.644;2024-02-26T06:26:07;100385.19;;;0.38;51.28
39051;BME280;24805;55.852;37.644;2024-02-26T06:31:09;100381.75;;;0.37;51.31
39051;BME280;24805;55.852;37.644;2024-02-26T06:36:11;100376.97;;;0.44;51.42
39051;BME280;24805;55.852;37.644;2024-02-26T06:41:14;100377.63;;;0.47;51.30
39051;BME280;24805;55.852;37.644;2024-02-26T06:46:16;100378.38;;;0.49;51.83
39051;BME280;24805;55.852;37.644;2024-02-26T06:51:19;100408.69;;;0.52;51.16
39051;BME280;24805;55.852;37.644;2024-02-26T06:56:21;100373.25;;;0.33;51.18
39051;BME280;24805;55.852;37.644;2024-02-26T07:01:23;100397.84;;;0.44;50.98
39051;BME280;24805;55.852;37.644;2024-02-26T07:06:29;100388.19;;;0.60;51.03
39051;BME280;24805;55.852;37.644;2024-02-26T07:11:31;100400.19;;;0.62;51.50
39051;BME280;24805;55.852;37.644;2024-02-26T07:16:34;100383.41;;;0.66;51.36
39051;BME280;24805;55.852;37.644;2024-02-26T07:21:36;100368.84;;;0.91;50.87
39051;BME280;24805;55.852;37.644;2024-02-26T07:26:38;100381.25;;;1.28;50.76
39051;BME280;24805;55.852;37.644;2024-02-26T07:31:40;100375.69;;;1.74;51.56
39051;BME280;24805;55.852;37.644;2024-02-26T07:36:43;100370.28;;;1.90;49.48
39051;BME280;24805;55.852;37.644;2024-02-26T07:41:45;100374.41;;;2.32;50.39
39051;BME280;24805;55.852;37.644;2024-02-26T07:46:50;100364.03;;;2.56;48.96
39051;BME280;24805;55.852;37.644;2024-02-26T07:51:52;100388.97;;;2.74;48.96
39051;BME280;24805;55.852;37.644;2024-02-26T07:56:55;100387.50;;;3.19;48.53
39051;BME280;24805;55.852;37.644;2024-02-26T08:01:57;100377.75;;;3.45;48.46
39051;BME280;24805;55.852;37.644;2024-02-26T08:07:00;100412.34;;;3.26;49.27
39051;BME280;24805;55.852;37.644;2024-02-26T08:12:02;100368.69;;;2.89;48.39
39051;BME280;24805;55.852;37.644;2024-02-26T08:17:24;100371.00;;;2.81;50.26
39051;BME280;24805;55.852;37.644;2024-02-26T08:22:26;100365.50;;;2.47;48.48
39051;BME280;24805;55.852;37.644;2024-02-26T08:27:28;100350.63;;;2.35;50.03
39051;BME280;24805;55.852;37.644;2024-02-26T08:32:31;100357.53;;;2.49;49.27
39051;BME280;24805;55.852;37.644;2024-02-26T08:37:33;100350.72;;;2.46;49.23
39051;BME280;24805;55.852;37.644;2024-02-26T08:42:35;100354.59;;;2.53;49.11
39051;BME280;24805;55.852;37.644;2024-02-26T08:47:38;100337.97;;;2.91;48.82
39051;BME280;24805;55.852;37.644;2024-02-26T08:52:40;100289.75;;;2.93;47.92
39051;BME280;24805;55.852;37.644;2024-02-26T08:57:42;100302.00;;;3.40;48.30
39051;BME280;24805;55.852;37.644;2024-02-26T09:02:45;100342.53;;;3.36;46.75
39051;BME280;24805;55.852;37.644;2024-02-26T09:07:47;100339.63;;;3.52;46.38
39051;BME280;24805;55.852;37.644;2024-02-26T09:12:49;100341.56;;;3.61;46.07
39051;BME280;24805;55.852;37.644;2024-02-26T09:17:52;100325.34;;;4.02;45.56
39051;BME280;24805;55.852;37.644;2024-02-26T09:22:54;100320.25;;;4.23;45.12
39051;BME280;24805;55.852;37.644;2024-02-26T09:27:56;100333.03;;;4.28;44.40
39051;BME280;24805;55.852;37.644;2024-02-26T09:32:59;100332.69;;;4.43;44.43
39051;BME280;24805;55.852;37.644;2024-02-26T09:38:01;100335.56;;;4.63;44.27
39051;BME280;24805;55.852;37.644;2024-02-26T09:43:04;100328.88;;;4.59;43.34
39051;BME280;24805;55.852;37.644;2024-02-26T09:48:08;100358.75;;;4.58;43.74
39051;BME280;24805;55.852;37.644;2024-02-26T09:53:13;100347.84;;;4.62;44.79
39051;BME280;24805;55.852;37.644;2024-02-26T09:58:16;100339.75;;;4.76;43.82
39051;BME280;24805;55.852;37.644;2024-02-26T10:03:22;100316.34;;;5.28;43.18
39051;BME280;24805;55.852;37.644;2024-02-26T10:08:27;100313.09;;;5.88;42.46
39051;BME280;24805;55.852;37.644;2024-02-26T10:13:30;100319.72;;;6.24;41.35
39051;BME280;24805;55.852;37.644;2024-02-26T10:18:48;100334.28;;;6.49;42.47
39051;BME280;24805;55.852;37.644;2024-02-26T10:23:54;100318.63;;;6.06;40.56
39051;BME280;24805;55.852;37.644;2024-02-26T10:28:59;100317.28;;;5.91;42.22
39051;BME280;24805;55.852;37.644;2024-02-26T10:34:03;100304.66;;;5.52;41.57
39051;BME280;24805;55.852;37.644;2024-02-26T10:39:07;100339.81;;;5.51;40.59
39051;BME280;24805;55.852;37.644;2024-02-26T10:44:10;100328.63;;;5.70;40.95
39051;BME280;24805;55.852;37.644;2024-02-26T10:49:16;100299.69;;;5.91;41.06
39051;BME280;24805;55.852;37.644;2024-02-26T10:54:26;100321.22;;;6.17;40.08
39051;BME280;24805;55.852;37.644;2024-02-26T10:59:31;100301.19;;;5.73;41.00
39051;BME280;24805;55.852;37.644;2024-02-26T11:04:35;100327.22;;;5.23;41.11
39051;BME280;24805;55.852;37.644;2024-02-26T11:09:38;100294.34;;;4.74;41.86
39051;BME280;24805;55.852;37.644;2024-02-26T11:14:46;100293.03;;;4.69;42.77
39051;BME280;24805;55.852;37.644;2024-02-26T11:19:49;100310.09;;;4.63;42.24
39051;BME280;24805;55.852;37.644;2024-02-26T11:24:56;100295.06;;;4.43;42.66
39051;BME280;24805;55.852;37.644;2024-02-26T11:30:01;100285.63;;;4.63;43.27
39051;BME280;24805;55.852;37.644;2024-02-26T11:35:08;100278.97;;;5.13;42.24
39051;BME280;24805;55.852;37.644;2024-02-26T11:40:13;100301.25;;;5.30;41.25
39051;BME280;24805;55.852;37.644;2024-02-26T11:50:42;100290.66;;;5.52;40.41
39051;BME280;24805;55.852;37.644;2024-02-26T11:55:44;100268.31;;;5.14;41.46
39051;BME280;24805;55.852;37.644;2024-02-26T12:00:46;100301.38;;;4.85;41.78
39051;BME280;24805;55.852;37.644;2024-02-26T12:05:51;100286.59;;;5.16;42.00
39051;BME280;24805;55.852;37.644;2024-02-26T12:10:54;100266.59;;;5.25;41.88
39051;BME280;24805;55.852;37.644;2024-02-26T12:15:58;100249.16;;;5.86;41.17
39051;BME280;24805;55.852;37.644;2024-02-26T12:21:03;100271.91;;;5.87;40.64
39051;BME280;24805;55.852;37.644;2024-02-26T12:26:07;100266.59;;;5.57;41.10
39051;BME280;24805;55.852;37.644;2024-02-26T12:31:11;100260.00;;;5.30;41.48
39051;BME280;24805;55.852;37.644;2024-02-26T12:36:14;100271.13;;;4.91;42.10
39051;BME280;24805;55.852;37.644;2024-02-26T12:41:16;100264.75;;;4.39;42.57
39051;BME280;24805;55.852;37.644;2024-02-26T12:46:20;100267.47;;;4.26;43.33
39051;BME280;24805;55.852;37.644;2024-02-26T12:51:23;100292.28;;;4.00;43.55
39051;BME280;24805;55.852;37.644;2024-02-26T12:56:27;100268.88;;;3.74;44.39
39051;BME280;24805;55.852;37.644;2024-02-26T13:01:30;100252.06;;;3.88;44.39
39051;BME280;24805;55.852;37.644;2024-02-26T13:06:33;100272.25;;;3.99;43.75
39051;BME280;24805;55.852;37.644;2024-02-26T13:11:39;100243.13;;;4.13;43.80
39051;BME280;24805;55.852;37.644;2024-02-26T13:16:42;100267.72;;;4.12;43.76
39051;BME280;24805;55.852;37.644;2024-02-26T13:21:45;100262.59;;;3.99;43.65
39051;BME280;24805;55.852;37.644;2024-02-26T13:26:47;100232.19;;;3.51;43.69
39051;BME280;24805;55.852;37.644;2024-02-26T13:31:57;100251.22;;;3.41;43.90
39051;BME280;24805;55.852;37.644;2024-02-26T13:37:00;100253.72;;;3.43;43.79
39051;BME280;24805;55.852;37.644;2024-02-26T13:42:02;100223.50;;;3.15;43.78
39051;BME280;24805;55.852;37.644;2024-02-26T13:47:04;100265.97;;;3.31;42.99
39051;BME280;24805;55.852;37.644;2024-02-26T13:52:07;100252.81;;;3.20;42.48
39051;BME280;24805;55.852;37.644;2024-02-26T13:57:09;100252.44;;;3.14;42.43
39051;BME280;24805;55.852;37.644;2024-02-26T14:02:11;100276.16;;;3.12;42.30
39051;BME280;24805;55.852;37.644;2024-02-26T14:07:15;100255.00;;;3.02;41.87
39051;BME280;24805;55.852;37.644;2024-02-26T14:12:19;100276.34;;;2.85;42.04
39051;BME280;24805;55.852;37.644;2024-02-26T14:17:26;100271.16;;;2.72;41.62
39051;BME280;24805;55.852;37.644;2024-02-26T14:22:29;100257.09;;;2.73;41.66
39051;BME280;24805;55.852;37.644;2024-02-26T14:27:32;100279.81;;;2.86;40.87
39051;BME280;24805;55.852;37.644;2024-02-26T14:32:35;100281.00;;;2.69;40.82
39051;BME280;24805;55.852;37.644;2024-02-26T14:37:40;100291.03;;;2.38;40.37
39051;BME280;24805;55.852;37.644;2024-02-26T14:42:45;100299.94;;;2.23;40.99
39051;BME280;24805;55.852;37.644;2024-02-26T14:47:47;100300.88;;;2.10;41.93
39051;BME280;24805;55.852;37.644;2024-02-26T14:52:50;100289.97;;;1.65;41.47
39051;BME280;24805;55.852;37.644;2024-02-26T14:57:52;100257.81;;;1.37;41.15
39051;BME280;24805;55.852;37.644;2024-02-26T15:02:54;100286.34;;;1.41;41.64
39051;BME280;24805;55.852;37.644;2024-02-26T15:07:57;100272.75;;;1.35;41.70
39051;BME280;24805;55.852;37.644;2024-02-26T15:13:00;100287.25;;;1.27;41.98
39051;BME280;24805;55.852;37.644;2024-02-26T15:18:03;100293.09;;;1.18;41.70
39051;BME280;24805;55.852;37.644;2024-02-26T15:23:05;100271.28;;;1.04;41.81
39051;BME280;24805;55.852;37.644;2024-02-26T15:28:08;100284.03;;;0.96;42.19
39051;BME280;24805;55.852;37.644;2024-02-26T15:33:13;100293.81;;;0.93;42.73
39051;BME280;24805;55.852;37.644;2024-02-26T15:38:15;100277.63;;;0.74;42.51
39051;BME280;24805;55.852;37.644;2024-02-26T15:43:18;100278.38;;;0.61;42.44
39051;BME280;24805;55.852;37.644;2024-02-26T15:48:21;100287.00;;;0.49;42.55
39051;BME280;24805;55.852;37.644;2024-02-26T15:53:24;100281.63;;;0.38;42.73
39051;BME280;24805;55.852;37.644;2024-02-26T15:58:26;100307.06;;;0.34;42.99
39051;BME280;24805;55.852;37.644;2024-02-26T16:03:29;100292.97;;;0.23;42.86
39051;BME280;24805;55.852;37.644;2024-02-26T16:08:31;100293.72;;;0.25;42.85
39051;BME280;24805;55.852;37.644;2024-02-26T16:13:34;100274.97;;;-0.10;43.50
39051;BME280;24805;55.852;37.644;2024-02-26T16:18:36;100302.75;;;0.05;42.99
39051;BME280;24805;55.852;37.644;2024-02-26T16:23:39;100308.81;;;0.06;43.35
39051;BME280;24805;55.852;37.644;2024-02-26T16:28:41;100305.63;;;0.00;43.33
39051;BME280;24805;55.852;37.644;2024-02-26T16:33:43;100299.47;;;-0.13;43.66
39051;BME280;24805;55.852;37.644;2024-02-26T16:38:46;100303.28;;;-0.18;43.62
39051;BME280;24805;55.852;37.644;2024-02-26T16:43:48;100297.78;;;-0.14;43.66
39051;BME280;24805;55.852;37.644;2024-02-26T16:48:50;100302.63;;;-0.22;43.80
39051;BME280;24805;55.852;37.644;2024-02-26T16:53:54;100325.47;;;-0.11;43.77
39051;BME280;24805;55.852;37.644;2024-02-26T16:58:57;100299.28;;;-0.24;44.17
39051;BME280;24805;55.852;37.644;2024-02-26T17:04:00;100289.59;;;-0.52;43.54
39051;BME280;24805;55.852;37.644;2024-02-26T17:09:02;100300.91;;;-0.37;43.73
39051;BME280;24805;55.852;37.644;2024-02-26T17:14:07;100294.94;;;-0.39;44.13
39051;BME280;24805;55.852;37.644;2024-02-26T17:19:09;100279.19;;;-0.38;44.04
39051;BME280;24805;55.852;37.644;2024-02-26T17:24:12;100294.38;;;-0.44;44.65
39051;BME280;24805;55.852;37.644;2024-02-26T17:29:14;100292.56;;;-0.28;44.12
39051;BME280;24805;55.852;37.644;2024-02-26T17:34:35;100322.78;;;-0.40;44.08
39051;BME280;24805;55.852;37.644;2024-02-26T17:39:37;100303.66;;;-0.24;44.10
39051;BME280;24805;55.852;37.644;2024-02-26T17:44:39;100302.50;;;-0.35;43.97
39051;BME280;24805;55.852;37.644;2024-02-26T17:49:42;100320.75;;;-0.35;43.79
39051;BME280;24805;55.852;37.644;2024-02-26T17:54:44;100327.56;;;-0.32;43.60
39051;BME280;24805;55.852;37.644;2024-02-26T17:59:47;100323.63;;;-0.39;44.14
39051;BME280;24805;55.852;37.644;2024-02-26T18:04:50;100335.72;;;-0.38;44.10
39051;BME280;24805;55.852;37.644;2024-02-26T18:09:52;100321.28;;;-0.44;44.55
39051;BME280;24805;55.852;37.644;2024-02-26T18:14:55;100315.41;;;-0.47;44.51
39051;BME280;24805;55.852;37.644;2024-02-26T18:19:57;100313.06;;;-0.52;44.23
39051;BME280;24805;55.852;37.644;2024-02-26T18:24:59;100319.88;;;-0.49;44.50
39051;BME280;24805;55.852;37.644;2024-02-26T18:30:03;100327.34;;;-0.59;44.48
39051;BME280;24805;55.852;37.644;2024-02-26T18:35:06;100336.94;;;-0.59;44.89
39051;BME280;24805;55.852;37.644;2024-02-26T18:40:09;100329.25;;;-0.61;44.78
39051;BME280;24805;55.852;37.644;2024-02-26T18:45:11;100329.75;;;-0.70;44.75
39051;BME280;24805;55.852;37.644;2024-02-26T18:50:17;100316.56;;;-0.67;45.17
39051;BME280;24805;55.852;37.644;2024-02-26T18:55:19;100327.66;;;-0.79;44.93
39051;BME280;24805;55.852;37.644;2024-02-26T19:00:22;100306.25;;;-0.84;45.03
39051;BME280;24805;55.852;37.644;2024-02-26T19:05:24;100308.00;;;-0.85;45.40
39051;BME280;24805;55.852;37.644;2024-02-26T19:10:28;100308.84;;;-0.84;45.29
39051;BME280;24805;55.852;37.644;2024-02-26T19:15:31;100309.59;;;-0.82;45.33
39051;BME280;24805;55.852;37.644;2024-02-26T19:20:35;100299.34;;;-0.85;45.56
39051;BME280;24805;55.852;37.644;2024-02-26T19:25:38;100306.50;;;-0.89;46.03
39051;BME280;24805;55.852;37.644;2024-02-26T19:30:40;100327.16;;;-0.86;45.70
39051;BME280;24805;55.852;37.644;2024-02-26T19:35:43;100314.06;;;-0.84;45.87
39051;BME280;24805;55.852;37.644;2024-02-26T19:40:45;100329.94;;;-0.89;46.11
39051;BME280;24805;55.852;37.644;2024-02-26T19:45:48;100318.84;;;-0.92;46.13
39051;BME280;24805;55.852;37.644;2024-02-26T19:50:50;100328.69;;;-0.97;46.15
39051;BME280;24805;55.852;37.644;2024-02-26T19:55:53;100345.22;;;-0.98;45.89
39051;BME280;24805;55.852;37.644;2024-02-26T20:00:55;100338.34;;;-0.99;46.59
39051;BME280;24805;55.852;37.644;2024-02-26T20:05:58;100338.53;;;-1.02;46.68
39051;BME280;24805;55.852;37.644;2024-02-26T20:11:00;100369.03;;;-1.05;46.37
39051;BME280;24805;55.852;37.644;2024-02-26T20:16:04;100349.44;;;-1.12;46.70
39051;BME280;24805;55.852;37.644;2024-02-26T20:21:06;100339.63;;;-1.07;46.68
39051;BME280;24805;55.852;37.644;2024-02-26T20:26:08;100346.66;;;-1.09;47.21
39051;BME280;24805;55.852;37.644;2024-02-26T20:31:11;100345.22;;;-1.14;46.81
39051;BME280;24805;55.852;37.644;2024-02-26T20:36:13;100356.72;;;-1.18;47.25
39051;BME280;24805;55.852;37.644;2024-02-26T20:41:16;100346.06;;;-1.14;47.20
39051;BME280;24805;55.852;37.644;2024-02-26T20:46:19;100336.34;;;-1.26;47.53
39051;BME280;24805;55.852;37.644;2024-02-26T20:51:22;100347.81;;;-1.30;47.65
39051;BME280;24805;55.852;37.644;2024-02-26T20:56:24;100346.31;;;-1.34;47.67
39051;BME280;24805;55.852;37.644;2024-02-26T21:01:26;100343.94;;;-1.39;47.51
39051;BME280;24805;55.852;37.644;2024-02-26T21:06:29;100372.56;;;-1.39;48.44
39051;BME280;24805;55.852;37.644;2024-02-26T21:11:33;100357.06;;;-1.40;48.26
39051;BME280;24805;55.852;37.644;2024-02-26T21:16:35;100333.81;;;-1.43;47.52
39051;BME280;24805;55.852;37.644;2024-02-26T21:21:38;100336.56;;;-1.46;48.42
39051;BME280;24805;55.852;37.644;2024-02-26T21:26:41;100327.91;;;-1.62;48.55
39051;BME280;24805;55.852;37.644;2024-02-26T21:31:44;100342.31;;;-1.57;48.46
39051;BME280;24805;55.852;37.644;2024-02-26T21:36:46;100352.06;;;-1.60;48.79
39051;BME280;24805;55.852;37.644;2024-02-26T21:41:49;100353.91;;;-1.62;48.58
39051;BME280;24805;55.852;37.644;2024-02-26T21:46:51;100372.13;;;-1.62;48.91
39051;BME280;24805;55.852;37.644;2024-02-26T21:51:53;100354.69;;;-1.78;49.03
39051;BME280;24805;55.852;37.644;2024-02-26T21:56:56;100371.59;;;-1.69;48.62
39051;BME280;24805;55.852;37.644;2024-02-26T22:01:59;100386.75;;;-1.77;49.02
39051;BME280;24805;55.852;37.644;2024-02-26T22:07:01;100385.81;;;-1.76;48.94
39051;BME280;24805;55.852;37.644;2024-02-26T22:12:04;100404.28;;;-1.81;49.19
39051;BME280;24805;55.852;37.644;2024-02-26T22:17:07;100404.28;;;-1.81;49.33
39051;BME280;24805;55.852;37.644;2024-02-26T22:22:09;100398.31;;;-1.83;49.54
39051;BME280;24805;55.852;37.644;2024-02-26T22:27:11;100387.50;;;-1.75;49.73
39051;BME280;24805;55.852;37.644;2024-02-26T22:32:14;100408.13;;;-1.88;49.42
39051;BME280;24805;55.852;37.644;2024-02-26T22:37:16;100401.38;;;-1.92;49.34
39051;BME280;24805;55.852;37.644;2024-02-26T22:42:22;100409.78;;;-1.87;50.14
39051;BME280;24805;55.852;37.644;2024-02-26T22:47:24;100424.16;;;-1.97;50.13
39051;BME280;24805;55.852;37.644;2024-02-26T22:52:27;100427.84;;;-2.01;49.83
39051;BME280;24805;55.852;37.644;2024-02-26T22:57:29;100426.25;;;-2.03;50.55
39051;BME280;24805;55.852;37.644;2024-02-26T23:02:31;100422.66;;;-2.01;50.42
39051;BME280;24805;55.852;37.644;2024-02-26T23:07:34;100433.34;;;-2.07;50.47
39051;BME280;24805;55.852;37.644;2024-02-26T23:12:36;100439.53;;;-2.10;50.46
39051;BME280;24805;55.852;37.644;2024-02-26T23:17:40;100434.75;;;-2.00;50.43
39051;BME280;24805;55.852;37.644;2024-02-26T23:22:45;100433.34;;;-2.07;50.40
39051;BME280;24805;55.852;37.644;2024-02-26T23:27:48;100418.66;;;-2.08;51.02
39051;BME280;24805;55.852;37.644;2024-02-26T23:32:50;100431.88;;;-2.13;50.81
39051;BME280;24805;55.852;37.644;2024-02-26T23:37:53;100431.13;;;-2.15;51.15
39051;BME280;24805;55.852;37.644;2024-02-26T23:42:55;100441.91;;;-2.05;50.68
39051;BME280;24805;55.852;37.644;2024-02-26T23:47:58;100434.19;;;-2.06;51.08
39051;BME280;24805;55.852;37.644;2024-02-26T23:53:01;100442.84;;;-2.06;51.13
39051;BME280;24805;55.852;37.644;2024-02-26T23:58:05;100443.69;;;-2.05;50.80
